Time;durP1;ratioP1;P1;durP2;ratioP2;P2;SDS_P1;SDS_P2;PMS_P1;PMS_P2;Temp;Humidity;BMP_temperature;BMP_pressure;BME280_temperature;BME280_humidity;BME280_pressure;Samples;Min_cycle;Max_cycle;Signal;HPM_P1;HPM_P2
2022/07/21 00:01:49;;;;;;;7.42;4.03;;;;;;;14.61;82.91;98353.19;1776423;80;20939;-59
2022/07/21 00:04:17;;;;;;;6.72;3.98;;;;;;;14.60;82.90;98350.81;1776109;79;20880;-60
2022/07/21 00:06:46;;;;;;;7.85;3.62;;;;;;;14.57;82.80;98357.61;1778676;79;21256;-60
2022/07/21 00:09:14;;;;;;;6.85;3.95;;;;;;;14.55;82.86;98351.73;1797204;79;21521;-60
2022/07/21 00:11:41;;;;;;;5.20;3.65;;;;;;;14.50;82.87;98349.16;1761206;80;21557;-60
2022/07/21 00:14:09;;;;;;;5.80;3.70;;;;;;;14.45;82.75;98347.92;1764082;80;21015;-60
2022/07/21 00:16:37;;;;;;;5.80;3.62;;;;;;;14.41;82.79;98344.80;1771912;80;20912;-60
2022/07/21 00:19:04;;;;;;;7.97;3.87;;;;;;;14.36;82.65;98341.68;1757282;80;21231;-58
2022/07/21 00:21:30;;;;;;;6.35;3.87;;;;;;;14.30;82.71;98345.03;1751495;81;21034;-58
2022/07/21 00:23:57;;;;;;;6.15;3.77;;;;;;;14.23;82.69;98340.59;1749329;80;20966;-58
2022/07/21 00:26:24;;;;;;;5.47;3.40;;;;;;;14.18;82.82;98345.29;1762830;80;20940;-58
2022/07/21 00:28:50;;;;;;;6.58;3.90;;;;;;;14.13;82.87;98345.44;1763292;80;21027;-58
2022/07/21 00:31:18;;;;;;;8.35;3.80;;;;;;;14.08;82.88;98338.81;1765709;80;20857;-58
2022/07/21 00:33:51;;;;;;;4.47;3.35;;;;;;;14.02;82.89;98337.31;1761040;80;20973;-58
2022/07/21 00:36:19;;;;;;;7.47;3.37;;;;;;;13.95;82.94;98335.59;1787710;79;20967;-58
2022/07/21 00:38:47;;;;;;;4.28;3.10;;;;;;;13.91;82.95;98342.15;1755464;80;20944;-58
2022/07/21 00:41:13;;;;;;;3.95;3.15;;;;;;;13.88;82.88;98344.63;1751208;80;20911;-58
2022/07/21 00:43:40;;;;;;;6.20;3.62;;;;;;;13.83;82.90;98339.36;1761514;80;21230;-58
2022/07/21 00:46:06;;;;;;;4.22;3.25;;;;;;;13.78;82.99;98338.14;1763616;80;20849;-58
2022/07/21 00:48:33;;;;;;;4.95;3.37;;;;;;;13.71;83.09;98347.41;1765388;80;20967;-58
2022/07/21 00:51:00;;;;;;;4.33;3.17;;;;;;;13.68;83.21;98340.50;1793324;79;21403;-58
2022/07/21 00:53:26;;;;;;;4.72;3.52;;;;;;;13.64;83.43;98341.64;1759713;80;20979;-58
2022/07/21 00:55:53;;;;;;;5.22;3.25;;;;;;;13.63;83.51;98353.52;1837535;77;21227;-58
2022/07/21 00:58:20;;;;;;;6.95;3.42;;;;;;;13.58;83.56;98346.89;1758614;80;20898;-58
2022/07/21 01:00:47;;;;;;;5.17;3.22;;;;;;;13.56;83.79;98351.78;1815914;77;20983;-58
2022/07/21 01:03:13;;;;;;;4.60;3.50;;;;;;;13.51;83.96;98350.53;1833071;77;20989;-58
2022/07/21 01:05:40;;;;;;;6.00;3.35;;;;;;;13.48;84.06;98351.12;1810427;77;21643;-58
2022/07/21 01:08:06;;;;;;;3.67;3.25;;;;;;;13.46;84.19;98341.76;1828809;77;21813;-59
2022/07/21 01:10:33;;;;;;;6.75;3.90;;;;;;;13.44;84.25;98339.92;1816567;77;20936;-58
2022/07/21 01:13:01;;;;;;;4.10;3.50;;;;;;;13.41;84.28;98343.20;1765302;80;21011;-58
2022/07/21 01:15:27;;;;;;;3.10;2.77;;;;;;;13.37;84.20;98340.88;1808826;79;21067;-58
2022/07/21 01:17:55;;;;;;;3.90;2.85;;;;;;;13.33;84.11;98343.34;1750933;80;20983;-58
2022/07/21 01:20:23;;;;;;;7.15;3.80;;;;;;;13.28;83.97;98339.98;1780686;79;21107;-58
2022/07/21 01:22:54;;;;;;;4.28;2.80;;;;;;;13.24;83.86;98345.14;1796524;79;20945;-58
2022/07/21 01:25:20;;;;;;;3.25;2.92;;;;;;;13.20;83.85;98348.19;1836463;77;20877;-58
2022/07/21 01:27:47;;;;;;;4.45;2.98;;;;;;;13.17;83.87;98349.31;1817123;77;21382;-58
2022/07/21 01:30:13;;;;;;;5.15;2.72;;;;;;;13.14;83.92;98342.67;1812292;77;21443;-58
2022/07/21 01:32:40;;;;;;;5.40;2.77;;;;;;;13.10;84.10;98341.65;1821230;77;21099;-58
2022/07/21 01:35:09;;;;;;;5.47;3.20;;;;;;;13.09;84.25;98339.27;1816757;77;21408;-58
2022/07/21 01:37:41;;;;;;;5.35;2.87;;;;;;;13.05;84.42;98341.71;1822029;77;20947;-58
2022/07/21 01:42:54;;;;;;;7.35;3.08;;;;;;;13.03;84.64;98330.45;1825285;77;20895;-58
2022/07/21 01:45:22;;;;;;;4.95;3.30;;;;;;;13.03;84.54;98332.61;1771498;80;21108;-58
2022/07/21 01:47:49;;;;;;;6.95;2.92;;;;;;;12.99;84.51;98328.12;1753843;80;21336;-58
2022/07/21 01:50:18;;;;;;;6.45;2.50;;;;;;;12.95;84.38;98329.82;1789150;79;20912;-58
2022/07/21 01:52:45;;;;;;;3.52;2.35;;;;;;;12.90;84.52;98331.25;1783087;79;20959;-58
2022/07/21 01:55:12;;;;;;;6.10;2.50;;;;;;;12.88;84.67;98333.45;1803361;79;20991;-61
2022/07/21 01:57:39;;;;;;;5.37;2.72;;;;;;;12.84;84.68;98332.42;1786483;79;21240;-61
2022/07/21 02:00:07;;;;;;;3.12;2.83;;;;;;;12.84;84.81;98332.42;1785291;79;21513;-61
2022/07/21 02:02:33;;;;;;;3.92;2.87;;;;;;;12.79;84.69;98326.59;1782960;79;21474;-61
2022/07/21 02:05:01;;;;;;;3.90;3.00;;;;;;;12.74;84.74;98328.59;1800998;79;20900;-60
2022/07/21 02:07:29;;;;;;;2.92;2.40;;;;;;;12.70;84.69;98325.68;1780603;79;20976;-61
2022/07/21 02:09:55;;;;;;;4.47;3.00;;;;;;;12.65;84.65;98329.80;1779605;79;21161;-61
2022/07/21 02:12:23;;;;;;;5.92;2.70;;;;;;;12.58;84.80;98328.58;1792106;79;20927;-61
2022/07/21 02:14:50;;;;;;;4.42;2.70;;;;;;;12.56;84.88;98328.08;1801228;79;20876;-61
2022/07/21 02:17:17;;;;;;;5.22;2.95;;;;;;;12.55;84.91;98323.27;1797341;79;20892;-61
2022/07/21 02:19:45;;;;;;;3.52;2.67;;;;;;;12.55;84.85;98323.81;1801819;79;21085;-61
2022/07/21 02:22:11;;;;;;;3.60;2.80;;;;;;;12.49;84.87;98329.80;1797022;79;21217;-61
2022/07/21 02:24:39;;;;;;;3.12;2.70;;;;;;;12.46;84.93;98339.02;1788174;79;20907;-61
2022/07/21 02:27:08;;;;;;;4.05;2.70;;;;;;;12.42;85.20;98338.78;1776744;79;21019;-61
2022/07/21 02:29:34;;;;;;;5.28;2.72;;;;;;;12.38;85.16;98334.30;1791503;79;20999;-61
2022/07/21 02:32:01;;;;;;;4.33;2.70;;;;;;;12.35;85.15;98337.83;1781842;79;21053;-60
2022/07/21 02:34:29;;;;;;;3.52;2.72;;;;;;;12.29;85.16;98335.52;1787969;79;20901;-61
2022/07/21 02:36:56;;;;;;;6.25;2.98;;;;;;;12.23;85.19;98336.12;1792090;79;20884;-61
2022/07/21 02:39:22;;;;;;;4.20;2.47;;;;;;;12.18;85.12;98345.61;1794446;79;20960;-58
2022/07/21 02:41:49;;;;;;;3.40;2.35;;;;;;;12.13;85.19;98339.53;1802229;79;20916;-59
2022/07/21 02:44:15;;;;;;;4.40;2.52;;;;;;;12.11;85.24;98345.17;1804131;78;21063;-59
2022/07/21 02:46:42;;;;;;;5.58;2.80;;;;;;;12.10;85.24;98342.79;1794013;79;21111;-59
2022/07/21 02:49:08;;;;;;;4.50;2.77;;;;;;;12.08;85.38;98341.72;1787663;79;20872;-59
2022/07/21 02:51:34;;;;;;;2.92;2.60;;;;;;;12.09;85.47;98346.02;1800886;79;20956;-59
2022/07/21 02:54:03;;;;;;;5.67;2.83;;;;;;;12.12;85.41;98341.95;1784805;79;21459;-60
2022/07/21 02:56:29;;;;;;;5.35;2.35;;;;;;;12.11;85.23;98337.12;1793003;79;20884;-59
2022/07/21 02:58:56;;;;;;;4.30;2.37;;;;;;;12.09;85.25;98343.33;1797570;79;21101;-60
2022/07/21 03:01:24;;;;;;;6.53;2.45;;;;;;;12.09;85.16;98339.30;1776665;79;20915;-60
2022/07/21 03:03:51;;;;;;;4.28;2.70;;;;;;;12.05;85.20;98340.17;1789275;79;20939;-60
2022/07/21 03:06:17;;;;;;;5.45;2.55;;;;;;;12.03;85.37;98343.70;1796607;79;21017;-59
2022/07/21 03:08:45;;;;;;;6.12;3.27;;;;;;;12.05;85.59;98349.57;1786359;79;20885;-60
2022/07/21 03:11:13;;;;;;;6.90;3.12;;;;;;;12.05;85.75;98357.09;1785489;79;21414;-60
2022/07/21 03:13:40;;;;;;;2.85;2.42;;;;;;;12.07;85.92;98354.91;1790484;79;20920;-59
2022/07/21 03:16:06;;;;;;;3.65;2.62;;;;;;;12.05;85.94;98352.26;1789276;79;20891;-60
2022/07/21 03:18:35;;;;;;;4.08;2.87;;;;;;;12.02;86.03;98362.23;1785651;79;21008;-60
2022/07/21 03:21:01;;;;;;;3.85;2.90;;;;;;;12.02;86.07;98356.86;1786588;79;21609;-60
2022/07/21 03:23:29;;;;;;;6.55;2.87;;;;;;;12.02;86.02;98364.38;1781719;79;21109;-59
2022/07/21 03:25:55;;;;;;;5.97;3.02;;;;;;;11.98;86.06;98363.36;1776453;79;21003;-60
2022/07/21 03:28:22;;;;;;;4.92;3.02;;;;;;;11.95;86.25;98367.96;1795307;79;20868;-59
2022/07/21 03:30:50;;;;;;;2.85;2.40;;;;;;;11.95;86.35;98363.94;1793947;79;20992;-60
2022/07/21 03:33:17;;;;;;;5.15;2.75;;;;;;;11.97;86.38;98364.44;1798694;78;20869;-60
2022/07/21 03:35:43;;;;;;;8.53;2.90;;;;;;;12.00;86.42;98374.61;1793379;79;21207;-59
2022/07/21 03:38:10;;;;;;;4.80;2.70;;;;;;;12.03;86.56;98376.72;1802658;79;20912;-60
2022/07/21 03:40:38;;;;;;;5.45;3.25;;;;;;;12.07;86.72;98377.73;1790146;79;20911;-60
2022/07/21 03:43:06;;;;;;;4.03;2.80;;;;;;;12.10;86.71;98372.33;1790727;79;20954;-59
2022/07/21 03:45:34;;;;;;;5.42;2.87;;;;;;;12.12;86.65;98378.20;1776186;79;20896;-60
2022/07/21 03:48:02;;;;;;;3.25;2.52;;;;;;;12.14;86.73;98375.48;1797064;79;21690;-60
2022/07/21 03:50:30;;;;;;;6.33;2.80;;;;;;;12.18;86.82;98381.86;1801919;79;20917;-60
2022/07/21 03:52:57;;;;;;;11.63;2.80;;;;;;;12.20;86.81;98379.67;1781959;79;20880;-60
2022/07/21 03:55:24;;;;;;;6.12;3.00;;;;;;;12.22;86.79;98374.80;1771241;79;20994;-60
2022/07/21 03:57:58;;;;;;;4.10;2.92;;;;;;;12.26;86.87;98383.09;1784676;79;20877;-60
2022/07/21 04:00:32;;;;;;;8.25;3.08;;;;;;;12.32;87.16;98384.06;1787292;79;21079;-60
2022/07/21 04:02:59;;;;;;;9.15;3.20;;;;;;;12.39;87.29;98386.95;1802139;79;20941;-60
2022/07/21 04:05:26;;;;;;;6.97;2.98;;;;;;;12.47;87.23;98384.92;1801159;79;20920;-60
2022/07/21 04:07:52;;;;;;;10.43;2.98;;;;;;;12.56;87.57;98375.09;1799009;79;20857;-60
2022/07/21 04:10:24;;;;;;;6.75;2.60;;;;;;;12.73;87.88;98379.39;1774670;79;20899;-60
2022/07/21 04:12:51;;;;;;;8.60;3.47;;;;;;;12.91;87.88;98373.16;1786830;79;21677;-60
2022/07/21 04:15:18;;;;;;;11.05;3.08;;;;;;;13.10;87.76;98376.61;1799478;79;20848;-60
2022/07/21 04:17:45;;;;;;;7.22;2.98;;;;;;;13.28;87.48;98364.99;1773111;79;21438;-60
2022/07/21 04:20:13;;;;;;;5.87;2.77;;;;;;;13.44;87.02;98358.22;1801883;79;20964;-60
2022/07/21 04:22:43;;;;;;;14.35;3.42;;;;;;;13.60;86.51;98358.16;1793007;79;21007;-60
2022/07/21 04:25:11;;;;;;;7.72;2.45;;;;;;;13.76;85.97;98364.55;1789904;78;21538;-60
2022/07/21 04:27:38;;;;;;;4.80;2.70;;;;;;;13.87;85.18;98360.02;1789733;79;20912;-60
2022/07/21 04:30:07;;;;;;;3.00;2.30;;;;;;;14.02;84.50;98361.55;1802450;79;21401;-60
2022/07/21 04:32:34;;;;;;;4.37;2.00;;;;;;;14.14;83.34;98355.09;1803948;78;20955;-59
2022/07/21 04:35:00;;;;;;;3.90;2.22;;;;;;;14.31;82.02;98349.88;1788218;79;20900;-59
2022/07/21 04:37:27;;;;;;;4.95;2.00;;;;;;;14.49;81.05;98354.29;1787224;79;21199;-60
2022/07/21 04:39:53;;;;;;;5.78;2.00;;;;;;;14.67;80.15;98346.58;1776799;79;20967;-60
2022/07/21 04:42:20;;;;;;;4.20;1.70;;;;;;;14.86;78.80;98340.41;1781553;79;20929;-59
2022/07/21 04:44:47;;;;;;;3.40;1.70;;;;;;;15.07;77.47;98342.03;1754138;80;20987;-59
2022/07/21 04:47:13;;;;;;;4.90;2.00;;;;;;;15.23;76.06;98342.41;1818583;77;21013;-60
2022/07/21 04:49:40;;;;;;;4.58;1.80;;;;;;;15.38;73.84;98346.05;1834794;77;21545;-59
2022/07/21 04:52:07;;;;;;;5.28;1.80;;;;;;;15.52;73.13;98346.77;1737722;81;21538;-60
2022/07/21 04:54:33;;;;;;;4.53;1.87;;;;;;;15.61;72.15;98346.23;1758580;79;20970;-59
2022/07/21 04:57:02;;;;;;;3.60;1.60;;;;;;;15.65;71.25;98344.48;1807096;78;20872;-59
2022/07/21 04:59:30;;;;;;;4.20;1.85;;;;;;;15.69;70.71;98346.23;1830736;78;20845;-60
2022/07/21 05:01:57;;;;;;;2.70;1.60;;;;;;;15.75;70.42;98345.55;1821559;77;21426;-60
2022/07/21 05:04:24;;;;;;;7.65;1.62;;;;;;;15.79;69.89;98342.99;1827236;77;21375;-60
2022/07/21 05:06:52;;;;;;;3.70;1.42;;;;;;;15.83;69.53;98342.05;1818001;77;21497;-60
2022/07/21 05:09:19;;;;;;;4.72;1.85;;;;;;;15.89;69.45;98346.20;1818694;77;20857;-59
2022/07/21 05:11:45;;;;;;;5.25;2.00;;;;;;;15.95;68.18;98353.03;1756698;80;20941;-59
2022/07/21 05:14:12;;;;;;;2.45;1.30;;;;;;;16.03;67.87;98355.52;1822942;77;21766;-60
2022/07/21 05:16:39;;;;;;;2.33;1.40;;;;;;;16.08;67.68;98354.01;1810121;77;20955;-59
2022/07/21 05:19:06;;;;;;;3.05;1.30;;;;;;;16.16;68.00;98352.66;1837751;77;20871;-60
2022/07/21 05:21:32;;;;;;;3.17;1.40;;;;;;;16.23;68.30;98349.47;1828627;77;20966;-59
2022/07/21 05:23:59;;;;;;;2.62;1.27;;;;;;;16.32;68.19;98353.77;1810228;77;20876;-60
2022/07/21 05:26:25;;;;;;;2.15;1.32;;;;;;;16.43;68.01;98350.20;1826475;77;21234;-60
2022/07/21 05:28:52;;;;;;;5.42;1.80;;;;;;;16.53;67.56;98349.11;1823279;77;21474;-60
2022/07/21 05:31:18;;;;;;;7.12;2.25;;;;;;;16.61;67.78;98349.08;1755031;80;21393;-60
2022/07/21 05:33:45;;;;;;;4.58;2.10;;;;;;;16.67;67.81;98345.11;1783938;79;21495;-59
2022/07/21 05:36:12;;;;;;;4.42;1.90;;;;;;;16.71;67.30;98340.64;1818925;77;21013;-60
2022/07/21 05:38:39;;;;;;;4.10;1.90;;;;;;;16.76;67.51;98342.38;1820117;77;21219;-59
2022/07/21 05:41:06;;;;;;;4.42;2.15;;;;;;;16.79;67.46;98339.81;1822473;77;21422;-59
2022/07/21 05:43:33;;;;;;;6.03;2.17;;;;;;;16.82;67.41;98342.44;1846463;77;20990;-60
2022/07/21 05:45:59;;;;;;;7.92;2.20;;;;;;;16.86;67.81;98348.81;1841069;77;20955;-60
2022/07/21 05:48:26;;;;;;;4.35;2.52;;;;;;;16.90;67.93;98345.69;1752928;80;21464;-60
2022/07/21 05:50:53;;;;;;;3.92;2.42;;;;;;;16.92;68.07;98335.34;1826214;77;21586;-60
2022/07/21 05:53:20;;;;;;;3.45;2.30;;;;;;;16.96;68.05;98337.63;1834384;77;20929;-60
2022/07/21 05:55:47;;;;;;;3.75;2.80;;;;;;;17.01;68.47;98333.39;1820809;77;20927;-59
2022/07/21 05:58:14;;;;;;;3.90;2.50;;;;;;;17.08;68.59;98337.20;1743518;80;21655;-60
2022/07/21 06:00:40;;;;;;;6.12;2.87;;;;;;;17.15;68.97;98338.59;1816355;77;21068;-60
2022/07/21 06:03:07;;;;;;;6.10;2.80;;;;;;;17.23;68.82;98343.99;1789438;77;21103;-61
2022/07/21 06:05:33;;;;;;;7.85;3.08;;;;;;;17.30;69.23;98347.54;1788230;78;21456;-60
2022/07/21 06:08:01;;;;;;;6.37;3.25;;;;;;;17.37;69.64;98339.70;1796637;77;20968;-60
2022/07/21 06:10:28;;;;;;;7.00;3.20;;;;;;;17.43;69.83;98339.19;1805002;78;20935;-60
2022/07/21 06:12:56;;;;;;;4.53;3.20;;;;;;;17.49;68.78;98335.20;1752472;81;21005;-61
2022/07/21 06:15:22;;;;;;;6.22;3.08;;;;;;;17.51;68.72;98332.98;1767308;80;21108;-59
2022/07/21 06:17:50;;;;;;;4.45;3.00;;;;;;;17.49;68.63;98339.26;1795728;78;21085;-60
2022/07/21 06:20:17;;;;;;;9.03;3.05;;;;;;;17.51;69.31;98338.40;1813764;77;21000;-60
2022/07/21 06:22:43;;;;;;;5.65;3.25;;;;;;;17.58;69.28;98340.59;1824991;77;21513;-60
2022/07/21 06:25:14;;;;;;;5.95;3.22;;;;;;;17.66;69.25;98345.95;1842463;77;20928;-60
2022/07/21 06:27:40;;;;;;;5.10;3.20;;;;;;;17.79;69.22;98354.97;1815944;77;21268;-59
2022/07/21 06:30:08;;;;;;;8.95;3.08;;;;;;;17.89;69.37;98360.01;1815700;77;20862;-59
2022/07/21 06:32:35;;;;;;;8.65;3.30;;;;;;;18.01;69.87;98358.73;1816607;77;21497;-59
2022/07/21 06:35:02;;;;;;;5.20;2.80;;;;;;;18.12;69.81;98357.77;1812788;78;21095;-59
2022/07/21 06:37:29;;;;;;;5.20;2.50;;;;;;;18.20;68.36;98358.28;1816305;77;20960;-59
2022/07/21 06:39:57;;;;;;;6.12;2.70;;;;;;;18.24;67.73;98354.58;1827781;77;21108;-60
2022/07/21 06:42:24;;;;;;;5.95;2.37;;;;;;;18.27;66.96;98351.77;1758130;78;21010;-60
2022/07/21 06:44:51;;;;;;;6.58;2.10;;;;;;;18.29;67.01;98345.45;1791100;78;21461;-61
2022/07/21 06:47:18;;;;;;;3.15;1.82;;;;;;;18.30;65.81;98345.69;1791768;77;20895;-59
2022/07/21 06:49:46;;;;;;;2.30;1.70;;;;;;;18.29;65.10;98345.45;1807642;77;21109;-59
2022/07/21 06:52:13;;;;;;;6.62;1.90;;;;;;;18.34;63.78;98341.98;1820234;77;21234;-60
2022/07/21 06:54:39;;;;;;;5.75;1.60;;;;;;;18.37;64.14;98338.59;1815898;77;21047;-60
2022/07/21 06:57:06;;;;;;;8.03;1.55;;;;;;;18.42;62.03;98343.01;1831845;77;21125;-60
2022/07/21 06:59:33;;;;;;;3.05;1.75;;;;;;;18.51;62.62;98341.07;1817906;77;21005;-60
2022/07/21 07:02:00;;;;;;;5.15;1.57;;;;;;;18.58;61.59;98334.55;1835071;77;20873;-60
2022/07/21 07:04:27;;;;;;;3.70;1.50;;;;;;;18.66;61.07;98332.30;1816317;77;21104;-56
2022/07/21 07:06:55;;;;;;;5.20;1.40;;;;;;;18.72;59.48;98329.61;1826336;77;21724;-60
2022/07/21 07:09:23;;;;;;;7.33;1.47;;;;;;;18.78;61.05;98324.19;1749948;80;21046;-60
2022/07/21 07:11:52;;;;;;;1.62;0.90;;;;;;;18.88;60.54;98330.56;1788238;79;20995;-59
2022/07/21 07:14:20;;;;;;;3.65;1.40;;;;;;;18.97;59.60;98329.89;1813560;77;20907;-56
2022/07/21 07:16:48;;;;;;;5.37;1.22;;;;;;;19.03;58.54;98331.25;1828063;77;20948;-59
2022/07/21 07:19:16;;;;;;;4.92;1.07;;;;;;;19.07;58.28;98321.32;1834648;77;20864;-58
2022/07/21 07:21:44;;;;;;;2.12;1.20;;;;;;;19.13;58.40;98318.61;1804338;77;21477;-59
2022/07/21 07:24:10;;;;;;;4.70;1.10;;;;;;;19.23;58.52;98328.23;1784183;78;21461;-57
2022/07/21 07:26:37;;;;;;;1.62;1.00;;;;;;;19.33;56.71;98322.36;1803147;77;21492;-57
2022/07/21 07:29:05;;;;;;;3.95;0.60;;;;;;;19.41;56.11;98320.67;1834342;77;21673;-61
2022/07/21 07:31:33;;;;;;;2.05;0.90;;;;;;;19.45;52.24;98314.25;1817389;77;20950;-59
2022/07/21 07:34:01;;;;;;;2.50;0.70;;;;;;;19.50;51.37;98315.95;1815723;77;20889;-57
2022/07/21 07:36:29;;;;;;;3.72;0.82;;;;;;;19.58;50.75;98310.94;1793521;77;20984;-58
2022/07/21 07:38:55;;;;;;;5.58;0.85;;;;;;;19.65;52.27;98310.60;1816363;77;21484;-58
2022/07/21 07:41:24;;;;;;;4.75;0.90;;;;;;;19.73;52.46;98307.55;1789949;77;22020;-60
2022/07/21 07:43:51;;;;;;;4.30;0.80;;;;;;;19.80;50.48;98305.04;1798779;79;20944;-59
2022/07/21 07:46:20;;;;;;;6.80;0.85;;;;;;;19.83;49.54;98300.28;1801398;77;21219;-59
2022/07/21 07:48:47;;;;;;;3.92;0.90;;;;;;;19.86;50.27;98310.45;1816140;77;20958;-60
2022/07/21 07:51:14;;;;;;;1.62;0.70;;;;;;;19.88;49.44;98297.90;1808289;78;21105;-56
2022/07/21 07:53:41;;;;;;;5.35;0.85;;;;;;;19.89;50.69;98293.47;1791876;77;21237;-59
2022/07/21 07:56:08;;;;;;;3.37;0.82;;;;;;;19.98;50.68;98304.99;1814699;77;21604;-58
2022/07/21 07:58:35;;;;;;;3.10;0.90;;;;;;;20.05;49.99;98301.69;1768839;80;21447;-59
2022/07/21 08:01:02;;;;;;;1.80;0.80;;;;;;;20.08;51.34;98298.28;1768962;80;21098;-58
2022/07/21 08:03:29;;;;;;;2.75;0.80;;;;;;;20.14;50.86;98290.89;1746309;79;21088;-59
2022/07/21 08:06:06;;;;;;;5.80;0.80;;;;;;;20.21;50.59;98293.02;1736467;80;21313;-56
2022/07/21 08:08:34;;;;;;;6.15;0.80;;;;;;;20.29;51.05;98291.56;1735926;79;21487;-59
2022/07/21 08:11:02;;;;;;;2.17;0.60;;;;;;;20.42;49.96;98301.24;1752636;80;21004;-58
2022/07/21 08:13:29;;;;;;;5.85;1.67;;;;;;;20.50;47.95;98300.08;1791605;78;20976;-59
2022/07/21 08:15:55;;;;;;;2.15;1.50;;;;;;;20.50;46.46;98296.00;1813472;77;21033;-58
2022/07/21 08:18:22;;;;;;;1.95;1.35;;;;;;;20.51;45.50;98303.03;1830094;77;21988;-58
2022/07/21 08:20:49;;;;;;;5.20;2.30;;;;;;;20.53;47.28;98289.87;1823661;77;20868;-57
2022/07/21 08:23:16;;;;;;;11.57;2.05;;;;;;;20.58;45.93;98296.42;1810662;77;21483;-63
2022/07/21 08:25:42;;;;;;;3.77;1.85;;;;;;;20.60;45.64;98292.22;1820656;77;20986;-61
2022/07/21 08:28:09;;;;;;;4.03;1.72;;;;;;;20.66;48.51;98292.17;1801045;77;21003;-61
2022/07/21 08:30:36;;;;;;;2.98;1.70;;;;;;;20.79;48.07;98291.55;1810618;77;21108;-59
2022/07/21 08:33:03;;;;;;;1.80;1.10;;;;;;;20.94;46.92;98293.47;1816308;77;20947;-62
2022/07/21 08:35:32;;;;;;;5.37;0.72;;;;;;;21.03;46.65;98290.03;1815731;77;20887;-60
2022/07/21 08:38:05;;;;;;;1.92;0.88;;;;;;;21.10;45.11;98298.41;1815585;77;20995;-61
2022/07/21 08:40:36;;;;;;;2.83;0.90;;;;;;;21.10;45.41;98299.77;1806771;77;21606;-62
2022/07/21 08:43:03;;;;;;;3.90;0.90;;;;;;;21.12;45.78;98305.66;1804375;77;21541;-61
2022/07/21 08:45:31;;;;;;;5.85;1.07;;;;;;;21.12;44.28;98304.30;1807279;78;21005;-61
2022/07/21 08:47:59;;;;;;;2.67;0.80;;;;;;;21.11;44.55;98294.53;1808874;77;20948;-63
2022/07/21 08:50:29;;;;;;;2.45;0.65;;;;;;;21.16;45.56;98288.83;1815584;77;21056;-62
2022/07/21 08:52:55;;;;;;;4.42;1.00;;;;;;;21.29;45.21;98286.21;1813131;77;22332;-62
2022/07/21 08:55:23;;;;;;;5.47;0.65;;;;;;;21.38;45.15;98295.02;1823429;77;21227;-64
2022/07/21 08:57:50;;;;;;;1.70;0.60;;;;;;;21.42;44.80;98292.36;1791242;77;21492;-63
2022/07/21 09:00:22;;;;;;;3.25;0.80;;;;;;;21.45;44.26;98283.48;1806636;77;21202;-61
2022/07/21 09:02:52;;;;;;;4.37;0.70;;;;;;;21.54;43.60;98272.62;1787125;77;21066;-60
2022/07/21 09:05:19;;;;;;;2.30;0.70;;;;;;;21.67;42.40;98280.09;1805454;78;21079;-61
2022/07/21 09:07:54;;;;;;;1.90;0.50;;;;;;;21.80;42.59;98280.20;1806593;77;21471;-61
2022/07/21 09:10:23;;;;;;;1.47;0.47;;;;;;;21.95;41.19;98279.97;1809156;77;21374;-62
2022/07/21 09:13:02;;;;;;;4.08;0.57;;;;;;;22.02;40.61;98285.58;1819702;77;21058;-60
2022/07/21 09:15:31;;;;;;;2.55;0.57;;;;;;;22.06;40.54;98287.80;1818807;77;21046;-61
2022/07/21 09:18:15;;;;;;;1.45;0.50;;;;;;;22.13;40.03;98279.77;1830772;77;21005;-64
2022/07/21 09:20:49;;;;;;;1.80;0.40;;;;;;;22.14;41.05;98282.72;1813410;77;21240;-62
2022/07/21 09:23:17;;;;;;;6.05;0.53;;;;;;;22.15;40.32;98272.00;1816022;77;21000;-61
2022/07/21 09:25:51;;;;;;;1.45;0.40;;;;;;;22.22;39.14;98283.86;1823564;77;20982;-66
2022/07/21 09:28:22;;;;;;;3.60;0.45;;;;;;;22.20;39.83;98287.52;1832345;77;21588;-65
2022/07/21 09:31:03;;;;;;;1.27;0.45;;;;;;;22.16;38.69;98275.72;1810796;77;21018;-66
2022/07/21 09:33:40;;;;;;;2.30;0.40;;;;;;;22.16;40.14;98274.95;1809449;77;21756;-66
2022/07/21 09:36:13;;;;;;;3.30;0.70;;;;;;;22.23;39.86;98269.05;1812491;77;22013;-64
2022/07/21 09:38:51;;;;;;;1.75;0.40;;;;;;;22.24;38.43;98273.37;1811705;78;20992;-64
2022/07/21 09:41:24;;;;;;;1.70;0.60;;;;;;;22.27;41.88;98275.95;1806917;78;20885;-66
2022/07/21 09:43:56;;;;;;;1.92;0.50;;;;;;;22.41;38.95;98275.66;1808369;78;21473;-67
2022/07/21 09:46:26;;;;;;;1.82;0.50;;;;;;;22.45;39.95;98271.63;1812782;78;21687;-65
2022/07/21 09:48:56;;;;;;;0.40;0.40;;;;;;;22.51;40.67;98268.83;1816614;78;21090;-66
2022/07/21 09:51:33;;;;;;;2.72;0.60;;;;;;;22.65;39.95;98271.86;1809967;78;21540;-65
2022/07/21 09:54:06;;;;;;;1.35;0.50;;;;;;;22.80;39.59;98266.08;1796564;78;20956;-66
2022/07/21 09:56:36;;;;;;;1.00;0.55;;;;;;;22.96;41.27;98262.05;1770589;80;21012;-65
2022/07/21 09:59:04;;;;;;;6.78;0.50;;;;;;;23.18;39.07;98255.57;1761375;80;21090;-64
2022/07/21 10:01:32;;;;;;;2.37;0.60;;;;;;;23.32;39.83;98259.33;1747886;80;21566;-64
2022/07/21 10:03:59;;;;;;;3.00;0.60;;;;;;;23.41;39.80;98263.98;1783613;80;20930;-67
2022/07/21 10:06:30;;;;;;;3.55;0.62;;;;;;;23.41;37.16;98261.84;1778280;80;20942;-65
2022/07/21 10:08:58;;;;;;;2.33;0.40;;;;;;;23.40;39.17;98267.09;1770501;80;21497;-65
2022/07/21 10:11:25;;;;;;;2.35;0.50;;;;;;;23.42;39.84;98257.94;1752939;80;21234;-65
2022/07/21 10:13:51;;;;;;;1.27;0.60;;;;;;;23.47;37.52;98257.63;1733427;80;21002;-66
2022/07/21 10:16:19;;;;;;;3.72;0.50;;;;;;;23.36;37.55;98249.86;1764776;80;20885;-66
2022/07/21 10:19:06;;;;;;;2.10;0.50;;;;;;;23.28;38.36;98249.50;1769843;80;21118;-66
2022/07/21 10:22:01;;;;;;;1.92;0.70;;;;;;;23.25;38.95;98248.28;1725891;81;21055;-66
2022/07/21 10:24:28;;;;;;;0.90;0.47;;;;;;;23.29;36.91;98245.63;1736616;80;21068;-66
2022/07/21 10:27:10;;;;;;;3.85;0.50;;;;;;;23.27;37.45;98238.38;1733684;80;21005;-67
2022/07/21 10:30:00;;;;;;;1.20;0.50;;;;;;;23.30;37.80;98239.78;1747032;81;20938;-66
2022/07/21 10:32:34;;;;;;;4.92;0.57;;;;;;;23.39;37.62;98238.20;1746406;81;21075;-66
2022/07/21 10:35:28;;;;;;;2.52;0.50;;;;;;;23.48;38.99;98249.66;1752443;80;21020;-66
2022/07/21 10:38:01;;;;;;;2.30;0.40;;;;;;;23.56;39.33;98237.08;1742144;82;20936;-67
2022/07/21 10:40:33;;;;;;;2.17;0.57;;;;;;;23.76;39.42;98233.64;1751441;80;20941;-66
2022/07/21 10:43:05;;;;;;;2.22;0.60;;;;;;;23.91;37.84;98231.29;1800190;77;20886;-65
2022/07/21 10:45:37;;;;;;;3.17;0.72;;;;;;;23.98;36.87;98243.69;1798533;79;20931;-67
2022/07/21 10:48:07;;;;;;;3.12;0.60;;;;;;;23.97;38.06;98234.49;1799421;79;20919;-67
2022/07/21 10:50:37;;;;;;;3.60;0.55;;;;;;;23.99;38.06;98237.07;1806590;78;22005;-66
2022/07/21 10:53:07;;;;;;;2.02;0.50;;;;;;;24.06;37.73;98238.55;1840461;77;21462;-66
2022/07/21 10:55:37;;;;;;;7.15;0.60;;;;;;;24.07;39.13;98240.11;1836023;77;20927;-66
2022/07/21 10:58:26;;;;;;;2.05;0.50;;;;;;;24.09;37.03;98239.19;1806734;77;21014;-66
2022/07/21 11:00:56;;;;;;;3.20;0.60;;;;;;;24.09;37.86;98233.72;1804402;77;20989;-65
2022/07/21 11:03:31;;;;;;;1.65;0.55;;;;;;;24.19;39.98;98233.03;1817720;77;21301;-67
2022/07/21 11:06:23;;;;;;;3.55;0.72;;;;;;;24.32;37.34;98227.53;1784343;78;20982;-67
2022/07/21 11:09:06;;;;;;;5.42;0.72;;;;;;;24.35;36.80;98232.23;1787886;78;21406;-65
2022/07/21 11:11:38;;;;;;;2.40;0.70;;;;;;;24.28;37.05;98225.31;1791710;78;21066;-66
2022/07/21 11:14:14;;;;;;;2.10;0.70;;;;;;;24.20;37.94;98226.41;1776493;78;20963;-66
2022/07/21 11:16:54;;;;;;;1.98;0.53;;;;;;;24.26;38.76;98229.01;1827949;77;21435;-67
2022/07/21 11:19:46;;;;;;;3.75;0.50;;;;;;;24.32;37.48;98224.79;1834527;77;20899;-67
2022/07/21 11:22:21;;;;;;;3.62;0.82;;;;;;;24.36;36.25;98227.55;1779130;77;20890;-67
2022/07/21 11:25:01;;;;;;;3.95;0.70;;;;;;;24.31;35.95;98223.20;1785833;78;21136;-67
2022/07/21 11:27:36;;;;;;;1.57;0.50;;;;;;;24.29;36.25;98230.20;1777603;79;21019;-66
2022/07/21 11:30:06;;;;;;;0.70;0.40;;;;;;;24.33;36.87;98224.21;1798035;79;21241;-65
2022/07/21 11:32:33;;;;;;;3.58;0.50;;;;;;;24.46;36.10;98218.67;1805094;79;21558;-66
2022/07/21 11:35:03;;;;;;;3.22;0.60;;;;;;;24.54;38.04;98221.70;1794979;78;21135;-66
2022/07/21 11:37:39;;;;;;;1.02;0.50;;;;;;;24.78;38.35;98218.99;1812180;78;20933;-66
2022/07/21 11:40:15;;;;;;;1.20;0.60;;;;;;;25.10;38.25;98219.49;1817639;78;21041;-66
2022/07/21 11:42:45;;;;;;;3.25;0.70;;;;;;;25.59;36.70;98213.58;1816939;77;21125;-66
2022/07/21 11:45:12;;;;;;;4.40;0.80;;;;;;;25.73;36.44;98209.54;1815868;77;21667;-66